createdAt,value
2018-01-07T00:04:40.911Z,90.40
2018-01-07T00:10:44.557Z,90.14
2018-01-07T00:16:48.039Z,89.68
2018-01-07T00:22:52.271Z,89.87
2018-01-07T00:28:57.310Z,89.62
2018-01-07T00:35:00.819Z,89.53
2018-01-07T00:41:04.552Z,89.37
2018-01-07T00:47:08.158Z,89.36
2018-01-07T00:53:12.363Z,89.00
2018-01-07T00:59:16.535Z,89.33
2018-01-07T01:05:19.963Z,89.36
2018-01-07T01:11:24.616Z,89.12
2018-01-07T01:17:28.320Z,88.62
2018-01-07T01:23:31.805Z,88.85
2018-01-07T01:29:35.307Z,88.63
2018-01-07T01:35:38.944Z,88.85
2018-01-07T01:41:42.754Z,88.61
2018-01-07T01:47:46.201Z,88.79
2018-01-07T01:53:49.661Z,88.73
2018-01-07T02:12:54.135Z,89.55
2018-01-07T02:18:58.053Z,89.58
2018-01-07T02:25:01.642Z,89.27
2018-01-07T02:31:05.233Z,88.64
2018-01-07T02:37:09.446Z,88.63
2018-01-07T02:43:12.931Z,88.51
2018-01-07T02:49:16.416Z,88.83
2018-01-07T02:55:19.920Z,88.74
2018-01-07T03:01:23.529Z,88.59
2018-01-07T03:07:27.152Z,88.77
2018-01-07T03:13:31.622Z,88.72
2018-01-07T03:19:35.351Z,88.68
2018-01-07T03:25:38.994Z,88.84
2018-01-07T03:31:43.202Z,88.84
2018-01-07T03:37:46.933Z,88.36
2018-01-07T03:43:50.658Z,88.18
2018-01-07T03:49:56.087Z,87.93
2018-01-07T03:56:00.434Z,88.20
2018-01-07T04:02:04.690Z,87.69
2018-01-07T04:08:08.179Z,87.44
2018-01-07T04:14:11.771Z,87.25
2018-01-07T04:20:15.396Z,87.30
2018-01-07T04:26:18.898Z,87.24
2018-01-07T04:32:22.325Z,86.81
2018-01-07T04:38:26.332Z,87.04
2018-01-07T04:44:30.837Z,86.45
2018-01-07T04:50:34.464Z,85.62
2018-01-07T04:56:38.679Z,85.86
2018-01-07T05:02:42.197Z,85.89
2018-01-07T05:08:45.649Z,85.93
2018-01-07T05:14:50.644Z,85.25
2018-01-07T05:20:55.304Z,86.05
2018-01-07T05:26:59.401Z,85.56
2018-01-07T05:33:03.654Z,85.19
2018-01-07T05:39:07.361Z,85.67
2018-01-07T05:45:10.810Z,85.48
2018-01-07T05:51:14.676Z,86.17
2018-01-07T06:10:18.463Z,85.42
2018-01-07T06:16:21.995Z,84.92
2018-01-07T06:22:26.142Z,84.53
2018-01-07T06:28:29.602Z,84.95
2018-01-07T06:34:33.061Z,84.97
2018-01-07T06:40:36.651Z,83.39
2018-01-07T06:46:40.221Z,83.44
2018-01-07T06:52:43.799Z,83.68
2018-01-07T06:58:47.335Z,84.10
2018-01-07T07:04:50.982Z,84.31
2018-01-07T07:10:54.945Z,84.90
2018-01-07T07:16:59.265Z,83.81
2018-01-07T07:23:03.037Z,83.67
2018-01-07T07:29:06.498Z,83.22
2018-01-07T07:35:10.118Z,83.68
2018-01-07T07:41:13.646Z,83.68
2018-01-07T07:47:17.863Z,83.91
2018-01-07T07:53:21.448Z,84.05
2018-01-07T07:59:25.434Z,84.55
2018-01-07T08:05:29.648Z,84.38
2018-01-07T08:11:33.149Z,85.03
2018-01-07T08:17:37.406Z,85.58
2018-01-07T08:23:41.645Z,85.83
2018-01-07T08:29:45.100Z,85.88
2018-01-07T08:35:48.561Z,85.92
2018-01-07T08:41:52.155Z,86.77
2018-01-07T08:47:57.160Z,86.18
2018-01-07T08:54:00.627Z,84.84
2018-01-07T09:00:04.151Z,85.18
2018-01-07T09:06:08.493Z,84.62
2018-01-07T09:12:12.095Z,85.31
2018-01-07T09:18:16.359Z,84.89
2018-01-07T09:24:20.791Z,83.30
2018-01-07T09:30:24.826Z,82.22
2018-01-07T09:36:28.951Z,80.69
2018-01-07T09:42:32.480Z,80.58
2018-01-07T09:48:35.979Z,81.06
2018-01-07T09:54:40.253Z,81.16
2018-01-07T10:00:43.850Z,81.22
2018-01-07T10:06:47.364Z,81.60
2018-01-07T10:12:51.668Z,81.17
2018-01-07T10:18:55.321Z,81.23
2018-01-07T10:24:58.806Z,80.28
2018-01-07T10:31:03.118Z,80.72
2018-01-07T10:37:07.529Z,79.85
2018-01-07T10:43:10.996Z,78.83
2018-01-07T10:49:14.452Z,78.82
2018-01-07T10:55:18.049Z,78.84
2018-01-07T11:01:27.222Z,78.63
2018-01-07T11:07:30.931Z,79.09
2018-01-07T11:13:35.187Z,78.41
2018-01-07T11:19:38.728Z,78.12
2018-01-07T11:25:43.004Z,77.59
2018-01-07T11:31:47.234Z,76.99
2018-01-07T11:37:50.728Z,78.25
2018-01-07T11:43:55.589Z,77.08
2018-01-07T11:49:59.900Z,76.40
2018-01-07T11:56:03.685Z,77.46
2018-01-07T12:02:07.164Z,76.70
2018-01-07T12:08:10.630Z,76.76
2018-01-07T12:14:14.201Z,76.80
2018-01-07T12:20:18.561Z,76.62
2018-01-07T12:26:22.209Z,77.73
2018-01-07T12:32:25.816Z,77.36
2018-01-07T12:38:29.639Z,77.02
2018-01-07T12:44:34.037Z,77.58
2018-01-07T12:50:38.310Z,77.18
2018-01-07T12:56:42.754Z,77.68
2018-01-07T13:02:46.377Z,77.54
2018-01-07T13:08:49.896Z,77.72
2018-01-07T13:14:55.109Z,79.20
2018-01-07T13:20:58.655Z,78.88
2018-01-07T13:27:02.100Z,78.96
2018-01-07T13:33:05.600Z,79.76
2018-01-07T13:39:09.131Z,78.71
2018-01-07T13:45:12.640Z,78.02
2018-01-07T13:51:16.122Z,78.05
2018-01-07T13:57:19.733Z,78.32
2018-01-07T14:03:23.496Z,78.69
2018-01-07T14:09:27.481Z,78.68
2018-01-07T14:15:31.093Z,78.24
2018-01-07T14:21:34.945Z,78.62
2018-01-07T14:27:38.430Z,79.51
2018-01-07T14:33:41.920Z,79.59
2018-01-07T14:39:45.512Z,79.87
2018-01-07T14:45:48.951Z,79.80
2018-01-07T14:51:52.444Z,79.97
2018-01-07T14:57:56.964Z,81.02
2018-01-07T15:04:00.516Z,82.28
2018-01-07T15:10:04.787Z,83.10
2018-01-07T15:16:09.028Z,82.96
2018-01-07T15:22:12.534Z,83.69
2018-01-07T15:28:15.998Z,84.55
2018-01-07T15:34:19.452Z,84.74
2018-01-07T15:40:23.065Z,84.61
2018-01-07T15:46:27.199Z,85.02
2018-01-07T15:52:30.640Z,85.54
2018-01-07T15:58:34.366Z,85.39
2018-01-07T16:04:37.846Z,85.96
2018-01-07T16:10:41.303Z,86.39
2018-01-07T16:16:44.773Z,86.84
2018-01-07T16:22:48.224Z,86.44
2018-01-07T16:28:51.693Z,86.53
2018-01-07T16:34:55.452Z,86.04
2018-01-07T16:41:00.232Z,84.94
2018-01-07T16:47:03.734Z,84.59
2018-01-07T16:53:08.062Z,84.37
2018-01-07T16:59:11.806Z,83.92
2018-01-07T17:05:15.268Z,84.07
2018-01-07T17:11:18.905Z,83.39
2018-01-07T17:17:22.494Z,83.33
2018-01-07T17:23:28.126Z,82.88
2018-01-07T17:29:32.002Z,82.79
2018-01-07T17:35:35.550Z,82.65
2018-01-07T17:41:40.047Z,82.73
2018-01-07T17:47:43.495Z,82.68
2018-01-07T17:53:47.852Z,82.64
2018-01-07T17:59:51.495Z,82.56
2018-01-07T18:05:55.653Z,82.31
2018-01-07T18:12:00.040Z,82.16
2018-01-07T18:18:03.572Z,81.99
2018-01-07T18:24:07.184Z,82.09
2018-01-07T18:30:10.735Z,81.90
2018-01-07T18:36:14.991Z,82.13
2018-01-07T18:42:19.425Z,81.97
2018-01-07T18:48:25.056Z,81.84
2018-01-07T18:54:29.046Z,81.95
2018-01-07T19:00:32.656Z,81.65
2018-01-07T19:06:36.107Z,81.72
2018-01-07T19:12:39.847Z,81.52
2018-01-07T19:18:43.631Z,81.21
2018-01-07T19:24:47.268Z,81.08
2018-01-07T19:30:50.754Z,81.26
2018-01-07T19:36:54.646Z,80.70
2018-01-07T19:42:59.189Z,80.94
2018-01-07T19:49:02.679Z,80.71
2018-01-07T19:55:06.895Z,80.97
2018-01-07T20:01:10.365Z,80.89
2018-01-07T20:07:14.001Z,81.46
2018-01-07T20:13:17.546Z,81.57
2018-01-07T20:19:21.009Z,81.37
2018-01-07T20:25:24.773Z,81.76
2018-01-07T20:31:28.625Z,81.77
2018-01-07T20:37:32.165Z,81.86
2018-01-07T20:43:35.635Z,81.68
2018-01-07T20:49:39.213Z,81.87
2018-01-07T20:55:42.721Z,81.53
2018-01-07T21:01:46.260Z,81.97
2018-01-07T21:07:50.523Z,81.80
2018-01-07T21:13:55.018Z,81.76
2018-01-07T21:19:58.601Z,82.47
2018-01-07T21:26:02.374Z,83.02
2018-01-07T21:32:06.209Z,83.29
2018-01-07T21:38:09.670Z,84.31
2018-01-07T21:44:13.141Z,85.64
2018-01-07T21:50:16.678Z,85.92
2018-01-07T21:56:20.952Z,86.21
2018-01-07T22:02:44.050Z,86.60
2018-01-07T22:08:47.629Z,87.14
2018-01-07T22:14:51.069Z,86.99
2018-01-07T22:20:54.780Z,84.83
2018-01-07T22:26:58.269Z,85.16
2018-01-07T22:33:01.942Z,85.49
2018-01-07T22:39:05.494Z,85.96
2018-01-07T22:45:09.195Z,86.49
2018-01-07T22:51:12.640Z,86.06
2018-01-07T22:57:16.274Z,85.74
2018-01-07T23:03:19.923Z,86.12
2018-01-07T23:09:23.634Z,85.67
2018-01-07T23:15:27.635Z,85.41
2018-01-07T23:21:31.111Z,85.58
2018-01-07T23:27:34.584Z,85.56
2018-01-07T23:33:38.045Z,85.98
2018-01-07T23:39:41.504Z,86.01
2018-01-07T23:45:45.076Z,86.12
2018-01-07T23:51:49.329Z,85.46
2018-01-07T23:57:52.918Z,85.25
